createdAt,value
2017-08-30T00:00:24.622Z,15.20
2017-08-30T00:02:51.026Z,15.20
2017-08-30T00:05:17.424Z,15.10
2017-08-30T00:07:43.799Z,15.10
2017-08-30T00:10:10.186Z,15.10
2017-08-30T00:12:36.557Z,15.10
2017-08-30T00:15:02.961Z,15.10
2017-08-30T00:17:29.367Z,15.10
2017-08-30T00:19:55.737Z,15.10
2017-08-30T00:22:22.201Z,15.10
2017-08-30T00:25:00.874Z,15.00
2017-08-30T00:27:27.612Z,15.00
2017-08-30T00:29:53.984Z,15.00
2017-08-30T00:32:20.601Z,15.00
2017-08-30T00:34:47.012Z,14.90
2017-08-30T00:37:13.436Z,14.90
2017-08-30T00:39:39.914Z,14.90
2017-08-30T00:42:07.695Z,14.90
2017-08-30T00:44:34.166Z,14.90
2017-08-30T00:47:02.069Z,14.90
2017-08-30T00:49:28.568Z,14.90
2017-08-30T00:51:57.195Z,14.90
2017-08-30T00:54:25.679Z,14.90
2017-08-30T00:56:52.132Z,14.90
2017-08-30T00:59:18.903Z,14.90
2017-08-30T01:01:45.266Z,14.90
2017-08-30T01:04:12.463Z,14.90
2017-08-30T01:06:38.912Z,14.80
2017-08-30T01:09:06.493Z,14.80
2017-08-30T01:11:32.863Z,14.80
2017-08-30T01:13:59.543Z,14.80
2017-08-30T01:16:27.252Z,14.80
2017-08-30T01:18:53.651Z,14.70
2017-08-30T01:21:20.151Z,14.70
2017-08-30T01:23:46.574Z,14.70
2017-08-30T01:26:13.392Z,14.70
2017-08-30T01:28:39.820Z,14.70
2017-08-30T01:31:06.224Z,14.60
2017-08-30T01:33:32.641Z,14.60
2017-08-30T01:35:59.064Z,14.50
2017-08-30T01:38:26.151Z,14.50
2017-08-30T01:40:52.804Z,14.50
2017-08-30T01:43:19.300Z,14.50
2017-08-30T01:45:45.685Z,14.40
2017-08-30T01:48:12.115Z,14.40
2017-08-30T01:50:38.629Z,14.40
2017-08-30T01:53:05.048Z,14.40
2017-08-30T01:55:32.162Z,14.40
2017-08-30T01:57:59.002Z,14.40
2017-08-30T02:00:25.352Z,14.40
2017-08-30T02:02:51.759Z,14.40
2017-08-30T02:05:18.495Z,14.40
2017-08-30T02:07:45.108Z,14.40
2017-08-30T02:10:11.776Z,14.40
2017-08-30T02:12:38.200Z,14.40
2017-08-30T02:15:04.610Z,14.40
2017-08-30T02:17:31.000Z,14.40
2017-08-30T02:19:58.362Z,14.40
2017-08-30T02:22:25.019Z,14.30
2017-08-30T02:24:51.442Z,14.30
2017-08-30T02:27:17.852Z,14.30
2017-08-30T02:29:44.622Z,14.30
2017-08-30T02:32:11.009Z,14.20
2017-08-30T02:34:39.137Z,14.20
2017-08-30T02:37:05.550Z,14.20
2017-08-30T02:39:32.670Z,14.10
2017-08-30T02:42:00.634Z,14.10
2017-08-30T02:44:27.031Z,14.10
2017-08-30T02:46:54.118Z,14.10
2017-08-30T02:49:20.548Z,14.00
2017-08-30T02:51:46.967Z,14.00
2017-08-30T02:54:13.340Z,14.00
2017-08-30T02:56:39.781Z,13.90
2017-08-30T02:59:06.519Z,13.90
2017-08-30T03:01:32.919Z,13.80
2017-08-30T03:03:59.311Z,13.80
2017-08-30T03:06:25.726Z,13.80
2017-08-30T03:08:52.129Z,13.80
2017-08-30T03:11:18.550Z,13.80
2017-08-30T03:13:45.168Z,13.70
2017-08-30T03:16:11.567Z,13.70
2017-08-30T03:18:38.256Z,13.70
2017-08-30T03:21:04.931Z,13.70
2017-08-30T03:23:31.286Z,13.70
2017-08-30T03:25:57.722Z,13.70
2017-08-30T03:28:24.064Z,13.80
2017-08-30T03:30:50.471Z,13.90
2017-08-30T03:33:16.900Z,14.10
2017-08-30T03:35:43.325Z,14.30
2017-08-30T03:38:09.751Z,14.40
2017-08-30T03:40:36.159Z,14.60
2017-08-30T03:43:03.052Z,14.70
2017-08-30T03:45:29.837Z,14.80
2017-08-30T03:47:56.160Z,14.80
2017-08-30T03:50:23.931Z,14.90
2017-08-30T03:52:50.316Z,14.90
2017-08-30T03:55:16.687Z,14.90
2017-08-30T03:57:43.275Z,15.00
2017-08-30T04:00:09.813Z,14.90
2017-08-30T04:02:36.223Z,14.90
2017-08-30T04:05:04.212Z,15.00
2017-08-30T04:07:30.631Z,15.00
2017-08-30T04:09:56.979Z,15.00
2017-08-30T04:12:23.340Z,15.00
2017-08-30T04:14:49.728Z,15.10
2017-08-30T04:17:16.540Z,15.20
2017-08-30T04:19:42.919Z,15.20
2017-08-30T04:22:09.727Z,15.30
2017-08-30T04:24:36.110Z,15.30
2017-08-30T04:27:02.462Z,15.40
2017-08-30T04:29:48.985Z,15.50
2017-08-30T04:32:16.578Z,15.60
2017-08-30T04:34:42.979Z,15.60
2017-08-30T04:37:11.002Z,15.50
2017-08-30T04:39:37.543Z,15.40
2017-08-30T04:42:03.957Z,15.30
2017-08-30T04:44:30.333Z,15.20
2017-08-30T04:46:56.899Z,15.10
2017-08-30T04:49:23.311Z,15.10
2017-08-30T04:51:49.709Z,15.20
2017-08-30T04:54:17.375Z,15.20
2017-08-30T04:56:43.891Z,15.20
2017-08-30T04:59:10.585Z,15.20
2017-08-30T05:01:37.673Z,15.10
2017-08-30T05:04:04.008Z,15.00
2017-08-30T05:06:32.178Z,15.00
2017-08-30T05:08:59.896Z,15.10
2017-08-30T05:11:26.439Z,15.30
2017-08-30T05:13:52.896Z,15.30
2017-08-30T05:16:19.272Z,15.40
2017-08-30T05:18:45.659Z,15.40
2017-08-30T05:21:12.044Z,15.50
2017-08-30T05:23:38.396Z,15.50
2017-08-30T05:26:04.846Z,15.60
2017-08-30T05:28:31.215Z,15.60
2017-08-30T05:30:57.588Z,15.70
2017-08-30T05:33:24.703Z,15.70
2017-08-30T05:35:51.066Z,15.80
2017-08-30T05:38:18.903Z,15.80
2017-08-30T05:40:46.663Z,15.90
2017-08-30T05:43:13.095Z,16.00
2017-08-30T05:45:39.495Z,16.00
2017-08-30T05:48:05.864Z,16.10
2017-08-30T05:50:32.267Z,16.20
2017-08-30T05:52:58.718Z,16.20
2017-08-30T05:55:25.355Z,16.20
2017-08-30T05:57:52.169Z,16.10
2017-08-30T06:00:20.606Z,16.20
2017-08-30T06:02:47.771Z,16.30
2017-08-30T06:05:15.027Z,16.40
2017-08-30T06:07:41.396Z,16.50
2017-08-30T06:10:07.865Z,16.60
2017-08-30T06:12:34.227Z,16.80
2017-08-30T06:15:00.681Z,16.80
2017-08-30T06:17:27.038Z,16.80
2017-08-30T06:19:53.566Z,16.70
2017-08-30T06:22:19.936Z,16.70
2017-08-30T06:24:46.524Z,16.70
2017-08-30T06:27:12.917Z,16.70
2017-08-30T06:29:39.294Z,16.80
2017-08-30T06:32:08.369Z,16.90
2017-08-30T06:34:34.771Z,16.90
2017-08-30T06:37:01.177Z,16.90
2017-08-30T06:39:27.552Z,17.00
2017-08-30T06:41:54.217Z,17.00
2017-08-30T06:44:20.606Z,17.10
2017-08-30T06:46:47.332Z,17.10
2017-08-30T06:49:13.744Z,17.20
2017-08-30T06:51:40.102Z,17.30
2017-08-30T06:54:06.485Z,17.40
2017-08-30T06:56:33.298Z,17.50
2017-08-30T06:58:59.700Z,17.60
2017-08-30T07:01:26.310Z,17.70
2017-08-30T07:03:53.015Z,17.70
2017-08-30T07:06:19.449Z,17.90
2017-08-30T07:08:45.795Z,18.00
2017-08-30T07:11:12.297Z,18.10
2017-08-30T07:13:38.734Z,18.20
2017-08-30T07:16:06.314Z,18.20
2017-08-30T07:18:32.829Z,18.30
2017-08-30T07:20:59.926Z,18.30
2017-08-30T07:23:27.433Z,18.30
2017-08-30T07:25:54.049Z,18.40
2017-08-30T07:28:20.483Z,18.50
2017-08-30T07:30:48.064Z,18.60
2017-08-30T07:33:14.681Z,18.60
2017-08-30T07:35:41.055Z,18.70
2017-08-30T07:38:08.277Z,18.70
2017-08-30T07:40:35.837Z,18.80
2017-08-30T07:43:02.871Z,18.90
2017-08-30T07:45:31.563Z,19.00
2017-08-30T07:47:58.040Z,19.10
2017-08-30T07:50:28.192Z,19.20
2017-08-30T07:52:54.627Z,19.30
2017-08-30T07:55:21.007Z,19.40
2017-08-30T07:57:47.764Z,19.50
2017-08-30T08:00:14.795Z,19.60
2017-08-30T08:02:41.137Z,19.70
2017-08-30T08:05:07.577Z,19.80
2017-08-30T08:07:34.154Z,19.90
2017-08-30T08:10:00.702Z,20.00
2017-08-30T08:12:27.078Z,20.10
2017-08-30T08:14:53.787Z,20.20
2017-08-30T08:17:20.166Z,20.30
2017-08-30T08:19:46.955Z,20.40
2017-08-30T08:22:13.340Z,20.50
2017-08-30T08:24:39.894Z,20.50
2017-08-30T08:27:06.459Z,20.60
2017-08-30T08:29:32.842Z,20.70
2017-08-30T08:31:59.305Z,20.80
2017-08-30T08:34:25.795Z,20.90
2017-08-30T08:36:52.172Z,21.00
2017-08-30T08:39:18.553Z,21.10
2017-08-30T08:41:45.008Z,21.10
2017-08-30T08:44:11.387Z,21.20
2017-08-30T08:46:38.111Z,21.30
2017-08-30T08:49:04.509Z,21.40
2017-08-30T08:51:30.863Z,21.40
2017-08-30T08:53:57.304Z,21.50
2017-08-30T08:56:23.660Z,21.60
2017-08-30T08:58:50.223Z,21.80
2017-08-30T09:01:16.590Z,21.90
2017-08-30T09:03:42.985Z,22.00
2017-08-30T09:06:09.404Z,22.20
2017-08-30T09:08:35.819Z,22.20
2017-08-30T09:11:02.208Z,22.30
2017-08-30T09:13:29.179Z,22.50
2017-08-30T09:15:55.567Z,22.60
2017-08-30T09:18:21.991Z,22.70
2017-08-30T09:20:48.415Z,22.90
2017-08-30T09:23:14.778Z,22.90
2017-08-30T09:25:41.146Z,23.10
2017-08-30T09:28:07.501Z,23.30
2017-08-30T09:30:33.892Z,23.40
2017-08-30T09:33:00.355Z,23.50
2017-08-30T09:35:26.748Z,23.60
2017-08-30T09:37:53.156Z,23.70
2017-08-30T09:40:19.848Z,23.80
2017-08-30T09:42:46.206Z,24.00
2017-08-30T09:45:12.689Z,24.00
2017-08-30T09:47:39.063Z,24.10
2017-08-30T09:50:05.485Z,24.20
2017-08-30T09:52:31.912Z,24.20
2017-08-30T09:54:58.297Z,24.30
2017-08-30T09:57:24.661Z,24.40
2017-08-30T09:59:51.077Z,24.50
2017-08-30T10:02:17.507Z,24.70
2017-08-30T10:04:43.967Z,24.80
2017-08-30T10:07:11.315Z,25.00
2017-08-30T10:09:37.710Z,25.10
2017-08-30T10:12:04.122Z,25.30
2017-08-30T10:14:30.481Z,25.50
2017-08-30T10:16:56.906Z,25.60
2017-08-30T10:19:23.293Z,25.80
2017-08-30T10:21:50.557Z,26.10
2017-08-30T10:24:16.957Z,26.40
2017-08-30T10:26:43.333Z,26.70
2017-08-30T10:29:09.725Z,26.90
2017-08-30T10:31:36.075Z,27.20
2017-08-30T10:34:03.143Z,27.50
2017-08-30T10:36:30.005Z,27.80
2017-08-30T10:38:56.393Z,28.20
2017-08-30T10:41:22.826Z,28.50
2017-08-30T10:43:49.201Z,28.80
2017-08-30T10:46:15.580Z,29.10
2017-08-30T10:48:42.613Z,29.40
2017-08-30T10:51:08.963Z,29.50
2017-08-30T10:53:35.372Z,29.60
2017-08-30T10:56:01.835Z,29.70
2017-08-30T10:58:28.184Z,29.90
2017-08-30T11:00:55.272Z,30.10
2017-08-30T11:03:21.686Z,30.30
2017-08-30T11:05:48.374Z,30.40
2017-08-30T11:08:14.755Z,30.50
2017-08-30T11:10:41.136Z,30.70
2017-08-30T11:13:07.534Z,31.00
2017-08-30T11:15:33.902Z,31.20
2017-08-30T11:18:00.917Z,31.30
2017-08-30T11:20:27.396Z,31.30
2017-08-30T11:22:54.703Z,31.40
2017-08-30T11:25:21.300Z,31.50
2017-08-30T11:27:48.110Z,31.70
2017-08-30T11:30:14.543Z,32.00
2017-08-30T11:32:41.049Z,32.20
2017-08-30T11:35:07.473Z,32.40
2017-08-30T11:37:33.918Z,32.60
2017-08-30T11:40:00.388Z,32.80
2017-08-30T11:42:26.892Z,32.90
2017-08-30T11:44:53.329Z,33.00
2017-08-30T11:47:19.768Z,33.10
2017-08-30T11:49:46.720Z,33.20
2017-08-30T11:52:13.245Z,33.30
2017-08-30T11:54:39.688Z,33.30
2017-08-30T11:57:06.168Z,33.30
2017-08-30T11:59:33.204Z,33.50
2017-08-30T12:02:00.201Z,33.50
2017-08-30T12:04:26.574Z,33.50
2017-08-30T12:06:53.012Z,33.50
2017-08-30T12:09:19.770Z,33.70
2017-08-30T12:11:46.213Z,33.80
2017-08-30T12:14:12.657Z,34.00
2017-08-30T12:16:39.397Z,34.00
2017-08-30T12:19:05.818Z,34.10
2017-08-30T12:21:32.325Z,33.80
2017-08-30T12:23:58.782Z,33.80
2017-08-30T12:26:25.270Z,33.90
2017-08-30T12:28:51.676Z,34.10
2017-08-30T12:31:18.019Z,34.40
2017-08-30T12:33:44.460Z,34.60
2017-08-30T12:36:10.895Z,34.80
2017-08-30T12:38:43.280Z,35.00
2017-08-30T12:41:09.731Z,35.10
2017-08-30T12:43:36.700Z,35.20
2017-08-30T12:46:03.213Z,35.10
2017-08-30T12:48:29.640Z,35.10
2017-08-30T12:50:56.127Z,35.10
2017-08-30T12:53:22.579Z,35.00
2017-08-30T12:55:49.039Z,34.90
2017-08-30T12:58:15.500Z,34.50
2017-08-30T13:00:41.943Z,34.00
2017-08-30T13:03:08.425Z,33.30
2017-08-30T13:05:34.877Z,32.70
2017-08-30T13:08:01.308Z,32.70
2017-08-30T13:10:27.818Z,33.30
2017-08-30T13:12:54.217Z,34.00
2017-08-30T13:15:21.219Z,34.70
2017-08-30T13:17:47.704Z,35.20
2017-08-30T13:20:14.143Z,35.60
2017-08-30T13:22:40.519Z,35.80
2017-08-30T13:25:06.875Z,36.10
2017-08-30T13:27:33.321Z,36.30
2017-08-30T13:29:59.753Z,36.60
2017-08-30T13:32:26.161Z,36.80
2017-08-30T13:34:52.605Z,36.80
2017-08-30T13:37:19.017Z,37.00
2017-08-30T13:39:45.448Z,37.00
2017-08-30T13:42:12.115Z,36.90
2017-08-30T13:44:38.487Z,36.90
2017-08-30T13:47:04.901Z,36.80
2017-08-30T13:49:31.290Z,36.60
2017-08-30T13:51:57.665Z,36.70
2017-08-30T13:54:24.094Z,36.80
2017-08-30T13:56:50.465Z,37.00
2017-08-30T13:59:16.929Z,37.00
2017-08-30T14:01:43.476Z,37.00
2017-08-30T14:04:10.145Z,37.10
2017-08-30T14:06:36.609Z,37.30
2017-08-30T14:09:03.901Z,37.40
2017-08-30T14:11:30.260Z,37.40
2017-08-30T14:13:56.637Z,37.30
2017-08-30T14:16:23.038Z,37.30
2017-08-30T14:18:49.394Z,37.20
2017-08-30T14:21:15.774Z,37.20
2017-08-30T14:23:42.166Z,37.20
2017-08-30T14:26:08.543Z,37.30
2017-08-30T14:28:34.880Z,37.40
2017-08-30T14:31:01.580Z,37.40
2017-08-30T14:33:28.035Z,37.40
2017-08-30T14:35:54.409Z,37.30
2017-08-30T14:38:20.778Z,37.40
2017-08-30T14:40:47.208Z,37.60
2017-08-30T14:43:14.343Z,37.70
2017-08-30T14:45:41.045Z,37.70
2017-08-30T14:48:07.430Z,37.80
2017-08-30T14:50:33.810Z,37.80
2017-08-30T14:53:00.460Z,37.80
2017-08-30T14:55:26.854Z,37.80
2017-08-30T14:57:53.229Z,37.80
2017-08-30T15:00:19.712Z,37.80
2017-08-30T15:02:46.141Z,37.80
2017-08-30T15:05:12.530Z,37.70
2017-08-30T15:07:38.919Z,37.60
2017-08-30T15:10:06.103Z,37.40
2017-08-30T15:12:32.513Z,37.40
2017-08-30T15:14:58.850Z,37.40
2017-08-30T15:17:25.273Z,37.40
2017-08-30T15:19:51.618Z,37.40
2017-08-30T15:22:18.884Z,37.50
2017-08-30T15:24:45.261Z,37.50
2017-08-30T15:27:11.655Z,37.50
2017-08-30T15:29:38.027Z,37.50
2017-08-30T15:32:04.781Z,37.60
2017-08-30T15:34:31.214Z,37.60
2017-08-30T15:36:57.600Z,37.60
2017-08-30T15:39:23.952Z,37.50
2017-08-30T15:41:50.323Z,37.40
2017-08-30T15:44:16.734Z,37.30
2017-08-30T15:46:43.908Z,37.20
2017-08-30T15:49:10.310Z,37.10
2017-08-30T15:51:36.701Z,36.80
2017-08-30T15:54:03.097Z,36.70
2017-08-30T15:56:29.466Z,36.50
2017-08-30T15:58:55.819Z,36.30
2017-08-30T16:01:22.203Z,36.20
2017-08-30T16:03:48.547Z,36.00
2017-08-30T16:06:14.934Z,35.90
2017-08-30T16:08:41.426Z,35.60
2017-08-30T16:11:08.501Z,35.30
2017-08-30T16:13:35.066Z,35.00
2017-08-30T16:16:01.575Z,34.80
2017-08-30T16:18:35.209Z,34.60
2017-08-30T16:21:01.606Z,34.40
2017-08-30T16:23:28.023Z,34.30
2017-08-30T16:25:54.482Z,34.10
2017-08-30T16:28:20.907Z,33.90
2017-08-30T16:30:47.301Z,33.70
2017-08-30T16:33:14.119Z,33.50
2017-08-30T16:35:40.536Z,33.30
2017-08-30T16:38:06.917Z,33.20
2017-08-30T16:40:33.332Z,32.90
2017-08-30T16:42:59.780Z,32.70
2017-08-30T16:45:26.178Z,32.40
2017-08-30T16:47:53.287Z,32.00
2017-08-30T16:50:19.683Z,31.60
2017-08-30T16:52:47.182Z,31.20
2017-08-30T16:55:14.321Z,30.80
2017-08-30T16:57:40.723Z,30.50
2017-08-30T17:00:07.425Z,30.10
2017-08-30T17:02:33.857Z,29.80
2017-08-30T17:05:00.213Z,29.50
2017-08-30T17:07:26.877Z,29.30
2017-08-30T17:09:53.383Z,29.00
2017-08-30T17:12:19.793Z,28.80
2017-08-30T17:14:46.592Z,28.50
2017-08-30T17:17:13.058Z,28.30
2017-08-30T17:19:40.174Z,28.10
2017-08-30T17:22:07.061Z,27.90
2017-08-30T17:24:33.460Z,27.60
2017-08-30T17:26:59.858Z,27.40
2017-08-30T17:29:26.279Z,27.20
2017-08-30T17:31:52.660Z,27.00
2017-08-30T17:34:19.207Z,26.90
2017-08-30T17:36:45.611Z,26.70
2017-08-30T17:39:12.042Z,26.50
2017-08-30T17:41:38.440Z,26.40
2017-08-30T17:44:04.826Z,26.10
2017-08-30T17:46:31.226Z,26.00
2017-08-30T17:48:57.983Z,25.80
2017-08-30T17:51:24.334Z,25.70
2017-08-30T17:53:50.698Z,25.50
2017-08-30T17:56:17.647Z,25.40
2017-08-30T17:58:44.914Z,25.30
2017-08-30T18:01:11.341Z,25.20
2017-08-30T18:03:37.749Z,25.00
2017-08-30T18:06:04.088Z,25.00
2017-08-30T18:08:31.211Z,24.80
2017-08-30T18:10:58.057Z,24.70
2017-08-30T18:13:24.427Z,24.60
2017-08-30T18:15:52.131Z,24.50
2017-08-30T18:18:18.545Z,24.40
2017-08-30T18:20:45.668Z,24.30
2017-08-30T18:23:15.755Z,24.20
2017-08-30T18:25:42.185Z,24.10
2017-08-30T18:28:08.649Z,24.00
2017-08-30T18:33:08.411Z,23.70
2017-08-30T18:35:34.832Z,23.60
2017-08-30T18:38:02.212Z,23.50
2017-08-30T18:40:28.783Z,23.50
2017-08-30T18:42:55.510Z,23.40
2017-08-30T18:45:22.579Z,23.30
2017-08-30T18:47:48.980Z,23.30
2017-08-30T18:50:15.415Z,23.20
2017-08-30T18:52:41.813Z,23.20
2017-08-30T18:55:08.246Z,23.10
2017-08-30T18:57:34.633Z,23.00
2017-08-30T19:00:01.119Z,22.90
2017-08-30T19:02:27.549Z,22.90
2017-08-30T19:04:54.254Z,22.80
2017-08-30T19:07:21.376Z,22.70
2017-08-30T19:09:47.882Z,22.70
2017-08-30T19:12:14.351Z,22.50
2017-08-30T19:14:40.746Z,22.60
2017-08-30T19:17:07.166Z,22.50
2017-08-30T19:19:33.591Z,22.50
2017-08-30T19:22:00.090Z,22.40
2017-08-30T19:24:26.533Z,22.40
2017-08-30T19:26:54.067Z,22.30
2017-08-30T19:29:20.562Z,22.20
2017-08-30T19:31:46.965Z,22.20
2017-08-30T19:34:13.397Z,22.10
2017-08-30T19:36:39.815Z,22.10
2017-08-30T19:39:06.384Z,22.00
2017-08-30T19:41:32.852Z,22.00
2017-08-30T19:43:59.369Z,21.90
2017-08-30T19:46:25.788Z,21.90
2017-08-30T19:48:52.272Z,21.90
2017-08-30T19:51:18.740Z,21.80
2017-08-30T19:53:45.721Z,21.70
2017-08-30T19:56:12.204Z,21.70
2017-08-30T19:58:38.637Z,21.60
2017-08-30T20:01:05.131Z,21.60
2017-08-30T20:03:31.577Z,21.60
2017-08-30T20:05:59.629Z,21.50
2017-08-30T20:08:26.861Z,21.50
2017-08-30T20:10:53.683Z,21.50
2017-08-30T20:13:20.500Z,21.40
2017-08-30T20:15:47.098Z,21.40
2017-08-30T20:18:13.540Z,21.30
2017-08-30T20:20:39.934Z,21.30
2017-08-30T20:23:06.871Z,21.20
2017-08-30T20:25:33.594Z,21.10
2017-08-30T20:28:00.156Z,21.10
2017-08-30T20:30:26.637Z,21.10
2017-08-30T20:32:53.611Z,21.00
2017-08-30T20:35:20.153Z,21.00
2017-08-30T20:37:46.541Z,21.00
2017-08-30T20:40:13.297Z,20.90
2017-08-30T20:42:40.690Z,20.90
2017-08-30T20:45:07.163Z,20.80
2017-08-30T20:47:34.628Z,20.70
2017-08-30T20:50:01.481Z,20.60
2017-08-30T20:52:28.163Z,20.70
2017-08-30T20:54:55.043Z,20.60
2017-08-30T20:57:22.452Z,20.60
2017-08-30T20:59:50.304Z,20.60
2017-08-30T21:02:18.151Z,20.50
2017-08-30T21:04:45.058Z,20.40
2017-08-30T21:07:12.579Z,20.40
2017-08-30T21:09:39.423Z,20.40
2017-08-30T21:12:06.567Z,20.30
2017-08-30T21:14:32.958Z,20.20
2017-08-30T21:16:59.382Z,20.20
2017-08-30T21:19:25.763Z,20.10
2017-08-30T21:21:52.140Z,20.10
2017-08-30T21:24:19.237Z,20.00
2017-08-30T21:26:45.679Z,20.00
2017-08-30T21:29:14.700Z,20.00
2017-08-30T21:31:41.057Z,19.90
2017-08-30T21:34:07.612Z,19.90
2017-08-30T21:36:33.956Z,19.90
2017-08-30T21:39:00.612Z,19.90
2017-08-30T21:41:27.011Z,19.90
2017-08-30T21:43:53.402Z,19.80
2017-08-30T21:46:19.797Z,19.80
2017-08-30T21:48:46.086Z,19.80
2017-08-30T21:51:13.151Z,19.80
2017-08-30T21:53:39.573Z,19.80
2017-08-30T21:56:05.977Z,19.70
2017-08-30T21:58:32.409Z,19.70
2017-08-30T22:01:00.093Z,19.70
2017-08-30T22:03:26.698Z,19.60
2017-08-30T22:05:53.417Z,19.60
2017-08-30T22:08:19.765Z,19.60
2017-08-30T22:10:46.147Z,19.50
2017-08-30T22:13:12.542Z,19.50
2017-08-30T22:15:38.927Z,19.50
2017-08-30T22:18:05.315Z,19.40
2017-08-30T22:20:31.682Z,19.40
2017-08-30T22:22:58.063Z,19.40
2017-08-30T22:25:24.456Z,19.40
2017-08-30T22:27:51.223Z,19.30
2017-08-30T22:30:17.564Z,19.30
2017-08-30T22:32:43.917Z,19.30
2017-08-30T22:35:10.331Z,19.20
2017-08-30T22:37:36.878Z,19.20
2017-08-30T22:40:03.343Z,19.20
2017-08-30T22:42:29.670Z,19.10
2017-08-30T22:44:56.403Z,19.10
2017-08-30T22:47:23.064Z,19.00
2017-08-30T22:49:50.141Z,19.00
2017-08-30T22:52:16.659Z,19.00
2017-08-30T22:54:43.055Z,19.00
2017-08-30T22:57:09.480Z,18.90
2017-08-30T22:59:36.326Z,18.90
2017-08-30T23:02:03.221Z,18.90
2017-08-30T23:04:29.586Z,18.90
2017-08-30T23:06:56.186Z,18.90
2017-08-30T23:09:22.592Z,18.90
2017-08-30T23:11:48.966Z,18.90
2017-08-30T23:14:15.357Z,18.80
2017-08-30T23:16:41.744Z,18.80
2017-08-30T23:19:08.725Z,18.80
2017-08-30T23:21:35.743Z,18.70
2017-08-30T23:24:02.224Z,18.70
2017-08-30T23:26:28.566Z,18.70
2017-08-30T23:28:54.903Z,18.70
2017-08-30T23:31:21.322Z,18.60
2017-08-30T23:33:47.714Z,18.60
2017-08-30T23:36:14.105Z,18.60
2017-08-30T23:38:40.664Z,18.60
2017-08-30T23:41:07.011Z,18.50
2017-08-30T23:43:33.393Z,18.50
2017-08-30T23:45:59.749Z,18.40
2017-08-30T23:48:26.194Z,18.40
2017-08-30T23:50:52.809Z,18.40
2017-08-30T23:53:19.229Z,18.30
2017-08-30T23:55:45.805Z,18.30
2017-08-30T23:58:15.260Z,18.30
